sensor_id;sensor_type;location;lat;lon;timestamp;temperature;humidity
78475;SHT31;67766;51.964;5.660;2024-02-28T00:00:49;7.3;66.4
78475;SHT31;67766;51.964;5.660;2024-02-28T00:03:19;7.3;66.7
78475;SHT31;67766;51.964;5.660;2024-02-28T00:05:49;7.3;66.5
78475;SHT31;67766;51.964;5.660;2024-02-28T00:08:19;7.3;66.6
78475;SHT31;67766;51.964;5.660;2024-02-28T00:10:49;7.3;66.7
78475;SHT31;67766;51.964;5.660;2024-02-28T00:13:18;7.3;66.4
78475;SHT31;67766;51.964;5.660;2024-02-28T00:15:52;7.3;66.4
78475;SHT31;67766;51.964;5.660;2024-02-28T00:18:21;7.3;67.0
78475;SHT31;67766;51.964;5.660;2024-02-28T00:20:51;7.3;66.5
78475;SHT31;67766;51.964;5.660;2024-02-28T00:23:21;7.3;66.4
78475;SHT31;67766;51.964;5.660;2024-02-28T00:25:51;7.3;66.8
78475;SHT31;67766;51.964;5.660;2024-02-28T00:28:22;7.3;66.6
78475;SHT31;67766;51.964;5.660;2024-02-28T00:30:52;7.3;66.6
78475;SHT31;67766;51.964;5.660;2024-02-28T00:33:22;7.3;66.7
78475;SHT31;67766;51.964;5.660;2024-02-28T00:35:53;7.3;67.1
78475;SHT31;67766;51.964;5.660;2024-02-28T00:38:22;7.3;66.7
78475;SHT31;67766;51.964;5.660;2024-02-28T00:40:51;7.3;67.4
78475;SHT31;67766;51.964;5.660;2024-02-28T00:43:21;7.3;67.5
78475;SHT31;67766;51.964;5.660;2024-02-28T00:45:50;7.3;66.6
78475;SHT31;67766;51.964;5.660;2024-02-28T00:48:20;7.4;67.0
78475;SHT31;67766;51.964;5.660;2024-02-28T00:50:49;7.4;66.8
78475;SHT31;67766;51.964;5.660;2024-02-28T00:53:20;7.4;66.5
78475;SHT31;67766;51.964;5.660;2024-02-28T00:55:51;7.3;66.2
78475;SHT31;67766;51.964;5.660;2024-02-28T00:58:23;7.3;66.7
78475;SHT31;67766;51.964;5.660;2024-02-28T01:00:54;7.3;67.1
78475;SHT31;67766;51.964;5.660;2024-02-28T01:03:24;7.2;67.5
78475;SHT31;67766;51.964;5.660;2024-02-28T01:05:55;7.2;67.7
78475;SHT31;67766;51.964;5.660;2024-02-28T01:08:28;7.2;67.5
78475;SHT31;67766;51.964;5.660;2024-02-28T01:10:58;7.2;67.6
78475;SHT31;67766;51.964;5.660;2024-02-28T01:13:28;7.2;67.4
78475;SHT31;67766;51.964;5.660;2024-02-28T01:15:57;7.2;67.7
78475;SHT31;67766;51.964;5.660;2024-02-28T01:18:27;7.2;67.5
78475;SHT31;67766;51.964;5.660;2024-02-28T01:20:58;7.2;67.6
78475;SHT31;67766;51.964;5.660;2024-02-28T01:23:28;7.2;67.8
78475;SHT31;67766;51.964;5.660;2024-02-28T01:25:57;7.2;67.5
78475;SHT31;67766;51.964;5.660;2024-02-28T01:28:27;7.2;68.0
78475;SHT31;67766;51.964;5.660;2024-02-28T01:30:56;7.2;68.3
78475;SHT31;67766;51.964;5.660;2024-02-28T01:33:27;7.2;69.0
78475;SHT31;67766;51.964;5.660;2024-02-28T01:35:57;7.2;68.8
78475;SHT31;67766;51.964;5.660;2024-02-28T01:38:27;7.2;68.2
78475;SHT31;67766;51.964;5.660;2024-02-28T01:40:56;7.3;68.2
78475;SHT31;67766;51.964;5.660;2024-02-28T01:43:26;7.3;68.8
78475;SHT31;67766;51.964;5.660;2024-02-28T01:45:56;7.3;68.5
78475;SHT31;67766;51.964;5.660;2024-02-28T01:48:26;7.3;68.2
78475;SHT31;67766;51.964;5.660;2024-02-28T01:50:59;7.3;68.2
78475;SHT31;67766;51.964;5.660;2024-02-28T01:53:29;7.3;68.7
78475;SHT31;67766;51.964;5.660;2024-02-28T01:55:59;7.3;68.1
78475;SHT31;67766;51.964;5.660;2024-02-28T01:58:29;7.3;68.1
78475;SHT31;67766;51.964;5.660;2024-02-28T02:00:59;7.3;68.8
78475;SHT31;67766;51.964;5.660;2024-02-28T02:03:30;7.3;68.0
78475;SHT31;67766;51.964;5.660;2024-02-28T02:06:02;7.3;68.2
78475;SHT31;67766;51.964;5.660;2024-02-28T02:08:32;7.3;68.2
78475;SHT31;67766;51.964;5.660;2024-02-28T02:11:03;7.3;68.1
78475;SHT31;67766;51.964;5.660;2024-02-28T02:13:33;7.2;68.8
78475;SHT31;67766;51.964;5.660;2024-02-28T02:16:03;7.2;68.1
78475;SHT31;67766;51.964;5.660;2024-02-28T02:18:33;7.2;68.9
78475;SHT31;67766;51.964;5.660;2024-02-28T02:21:06;7.2;69.2
78475;SHT31;67766;51.964;5.660;2024-02-28T02:23:38;7.2;68.9
78475;SHT31;67766;51.964;5.660;2024-02-28T02:26:10;7.3;68.3
78475;SHT31;67766;51.964;5.660;2024-02-28T02:28:40;7.3;68.8
78475;SHT31;67766;51.964;5.660;2024-02-28T02:31:10;7.3;67.7
78475;SHT31;67766;51.964;5.660;2024-02-28T02:33:40;7.3;67.4
78475;SHT31;67766;51.964;5.660;2024-02-28T02:36:11;7.3;68.3
78475;SHT31;67766;51.964;5.660;2024-02-28T02:38:41;7.3;68.6
78475;SHT31;67766;51.964;5.660;2024-02-28T02:41:13;7.3;68.3
78475;SHT31;67766;51.964;5.660;2024-02-28T02:43:42;7.3;67.5
78475;SHT31;67766;51.964;5.660;2024-02-28T02:46:12;7.3;66.8
78475;SHT31;67766;51.964;5.660;2024-02-28T02:48:41;7.3;67.2
78475;SHT31;67766;51.964;5.660;2024-02-28T02:51:11;7.3;67.4
78475;SHT31;67766;51.964;5.660;2024-02-28T02:53:40;7.3;67.6
78475;SHT31;67766;51.964;5.660;2024-02-28T02:56:10;7.2;67.5
78475;SHT31;67766;51.964;5.660;2024-02-28T02:58:39;7.2;66.9
78475;SHT31;67766;51.964;5.660;2024-02-28T03:01:09;7.2;66.7
78475;SHT31;67766;51.964;5.660;2024-02-28T03:03:38;7.2;67.3
78475;SHT31;67766;51.964;5.660;2024-02-28T03:06:09;7.2;67.5
78475;SHT31;67766;51.964;5.660;2024-02-28T03:08:39;7.2;66.7
78475;SHT31;67766;51.964;5.660;2024-02-28T03:11:08;7.1;66.1
78475;SHT31;67766;51.964;5.660;2024-02-28T03:13:40;7.1;66.4
78475;SHT31;67766;51.964;5.660;2024-02-28T03:16:10;7.1;66.7
78475;SHT31;67766;51.964;5.660;2024-02-28T03:18:39;7.1;66.0
78475;SHT31;67766;51.964;5.660;2024-02-28T03:21:09;7.1;66.0
78475;SHT31;67766;51.964;5.660;2024-02-28T03:23:38;7.1;66.5
78475;SHT31;67766;51.964;5.660;2024-02-28T03:26:08;7.1;67.1
78475;SHT31;67766;51.964;5.660;2024-02-28T03:28:37;7.0;66.3
78475;SHT31;67766;51.964;5.660;2024-02-28T03:31:07;7.0;65.8
78475;SHT31;67766;51.964;5.660;2024-02-28T03:33:36;7.0;65.9
78475;SHT31;67766;51.964;5.660;2024-02-28T03:36:06;7.0;66.2
78475;SHT31;67766;51.964;5.660;2024-02-28T03:38:36;7.0;66.1
78475;SHT31;67766;51.964;5.660;2024-02-28T03:41:05;7.0;66.0
78475;SHT31;67766;51.964;5.660;2024-02-28T03:43:35;6.9;65.4
78475;SHT31;67766;51.964;5.660;2024-02-28T03:46:05;6.9;65.3
78475;SHT31;67766;51.964;5.660;2024-02-28T03:48:34;6.9;65.0
78475;SHT31;67766;51.964;5.660;2024-02-28T03:51:04;6.8;65.2
78475;SHT31;67766;51.964;5.660;2024-02-28T03:53:33;6.8;65.7
78475;SHT31;67766;51.964;5.660;2024-02-28T03:56:03;6.7;65.9
78475;SHT31;67766;51.964;5.660;2024-02-28T03:58:33;6.7;66.2
78475;SHT31;67766;51.964;5.660;2024-02-28T04:01:02;6.7;66.9
78475;SHT31;67766;51.964;5.660;2024-02-28T04:03:32;6.6;66.4
78475;SHT31;67766;51.964;5.660;2024-02-28T04:06:02;6.6;67.0
78475;SHT31;67766;51.964;5.660;2024-02-28T04:08:31;6.5;66.5
78475;SHT31;67766;51.964;5.660;2024-02-28T04:11:01;6.5;66.3
78475;SHT31;67766;51.964;5.660;2024-02-28T04:13:32;6.5;66.5
78475;SHT31;67766;51.964;5.660;2024-02-28T04:16:03;6.4;66.6
78475;SHT31;67766;51.964;5.660;2024-02-28T04:18:33;6.4;67.3
78475;SHT31;67766;51.964;5.660;2024-02-28T04:21:02;6.4;66.9
78475;SHT31;67766;51.964;5.660;2024-02-28T04:23:32;6.4;67.0
78475;SHT31;67766;51.964;5.660;2024-02-28T04:26:02;6.4;66.9
78475;SHT31;67766;51.964;5.660;2024-02-28T04:28:31;6.4;67.5
78475;SHT31;67766;51.964;5.660;2024-02-28T04:31:04;6.4;67.5
78475;SHT31;67766;51.964;5.660;2024-02-28T04:33:34;6.4;67.6
78475;SHT31;67766;51.964;5.660;2024-02-28T04:36:04;6.4;68.0
78475;SHT31;67766;51.964;5.660;2024-02-28T04:38:36;6.4;68.5
78475;SHT31;67766;51.964;5.660;2024-02-28T04:41:06;6.4;68.5
78475;SHT31;67766;51.964;5.660;2024-02-28T04:43:36;6.4;67.9
78475;SHT31;67766;51.964;5.660;2024-02-28T04:46:05;6.4;67.9
78475;SHT31;67766;51.964;5.660;2024-02-28T04:48:35;6.4;68.0
78475;SHT31;67766;51.964;5.660;2024-02-28T04:51:04;6.4;67.8
78475;SHT31;67766;51.964;5.660;2024-02-28T04:53:34;6.4;68.0
78475;SHT31;67766;51.964;5.660;2024-02-28T04:56:04;6.4;68.0
78475;SHT31;67766;51.964;5.660;2024-02-28T04:58:33;6.4;67.6
78475;SHT31;67766;51.964;5.660;2024-02-28T05:01:03;6.4;68.0
78475;SHT31;67766;51.964;5.660;2024-02-28T05:03:32;6.4;67.8
78475;SHT31;67766;51.964;5.660;2024-02-28T05:06:02;6.4;68.1
78475;SHT31;67766;51.964;5.660;2024-02-28T05:08:32;6.4;67.9
78475;SHT31;67766;51.964;5.660;2024-02-28T05:11:03;6.4;68.1
78475;SHT31;67766;51.964;5.660;2024-02-28T05:13:32;6.4;68.2
78475;SHT31;67766;51.964;5.660;2024-02-28T05:16:02;6.4;68.1
78475;SHT31;67766;51.964;5.660;2024-02-28T05:18:32;6.4;68.0
78475;SHT31;67766;51.964;5.660;2024-02-28T05:21:02;6.4;68.3
78475;SHT31;67766;51.964;5.660;2024-02-28T05:23:32;6.4;68.0
78475;SHT31;67766;51.964;5.660;2024-02-28T05:26:04;6.4;68.3
78475;SHT31;67766;51.964;5.660;2024-02-28T05:28:34;6.4;68.3
78475;SHT31;67766;51.964;5.660;2024-02-28T05:31:21;6.4;68.3
78475;SHT31;67766;51.964;5.660;2024-02-28T05:33:54;6.4;68.7
78475;SHT31;67766;51.964;5.660;2024-02-28T05:36:25;6.4;68.1
78475;SHT31;67766;51.964;5.660;2024-02-28T05:39:00;6.4;68.5
78475;SHT31;67766;51.964;5.660;2024-02-28T05:41:32;6.4;68.3
78475;SHT31;67766;51.964;5.660;2024-02-28T05:44:02;6.4;68.3
78475;SHT31;67766;51.964;5.660;2024-02-28T05:46:32;6.5;68.2
78475;SHT31;67766;51.964;5.660;2024-02-28T05:49:01;6.5;68.5
78475;SHT31;67766;51.964;5.660;2024-02-28T05:51:31;6.5;68.7
78475;SHT31;67766;51.964;5.660;2024-02-28T05:54:00;6.5;68.7
78475;SHT31;67766;51.964;5.660;2024-02-28T05:56:31;6.5;68.7
78475;SHT31;67766;51.964;5.660;2024-02-28T05:59:00;6.5;68.4
78475;SHT31;67766;51.964;5.660;2024-02-28T06:01:30;6.5;68.7
78475;SHT31;67766;51.964;5.660;2024-02-28T06:04:00;6.6;68.7
78475;SHT31;67766;51.964;5.660;2024-02-28T06:06:29;6.6;68.8
78475;SHT31;67766;51.964;5.660;2024-02-28T06:09:00;6.6;68.7
78475;SHT31;67766;51.964;5.660;2024-02-28T06:11:30;6.6;68.6
78475;SHT31;67766;51.964;5.660;2024-02-28T06:14:00;6.6;68.6
78475;SHT31;67766;51.964;5.660;2024-02-28T06:16:31;6.6;68.5
78475;SHT31;67766;51.964;5.660;2024-02-28T06:19:00;6.6;68.4
78475;SHT31;67766;51.964;5.660;2024-02-28T06:21:30;6.6;68.6
78475;SHT31;67766;51.964;5.660;2024-02-28T06:23:59;6.6;68.7
78475;SHT31;67766;51.964;5.660;2024-02-28T06:26:29;6.6;68.6
78475;SHT31;67766;51.964;5.660;2024-02-28T06:29:00;6.6;68.6
78475;SHT31;67766;51.964;5.660;2024-02-28T06:31:34;6.6;68.9
78475;SHT31;67766;51.964;5.660;2024-02-28T06:34:03;6.6;68.8
78475;SHT31;67766;51.964;5.660;2024-02-28T06:36:33;6.6;69.4
78475;SHT31;67766;51.964;5.660;2024-02-28T06:39:03;6.6;69.3
78475;SHT31;67766;51.964;5.660;2024-02-28T06:41:32;6.6;69.4
78475;SHT31;67766;51.964;5.660;2024-02-28T06:44:02;6.6;68.5
78475;SHT31;67766;51.964;5.660;2024-02-28T06:46:31;6.7;68.2
78475;SHT31;67766;51.964;5.660;2024-02-28T06:49:01;6.7;68.3
78475;SHT31;67766;51.964;5.660;2024-02-28T06:51:31;6.7;68.0
78475;SHT31;67766;51.964;5.660;2024-02-28T06:54:01;6.7;67.6
78475;SHT31;67766;51.964;5.660;2024-02-28T06:56:31;6.7;67.4
78475;SHT31;67766;51.964;5.660;2024-02-28T06:59:00;6.7;67.2
78475;SHT31;67766;51.964;5.660;2024-02-28T07:01:33;6.7;67.4
78475;SHT31;67766;51.964;5.660;2024-02-28T07:04:02;6.7;67.4
78475;SHT31;67766;51.964;5.660;2024-02-28T07:06:32;6.7;68.0
78475;SHT31;67766;51.964;5.660;2024-02-28T07:09:03;6.7;67.6
78475;SHT31;67766;51.964;5.660;2024-02-28T07:11:32;6.7;67.9
78475;SHT31;67766;51.964;5.660;2024-02-28T07:14:02;6.7;67.7
78475;SHT31;67766;51.964;5.660;2024-02-28T07:16:31;6.7;68.0
78475;SHT31;67766;51.964;5.660;2024-02-28T07:19:02;6.7;67.8
78475;SHT31;67766;51.964;5.660;2024-02-28T07:21:31;6.7;67.7
78475;SHT31;67766;51.964;5.660;2024-02-28T07:24:01;6.7;67.7
78475;SHT31;67766;51.964;5.660;2024-02-28T07:26:32;6.7;67.9
78475;SHT31;67766;51.964;5.660;2024-02-28T07:29:01;6.7;68.0
78475;SHT31;67766;51.964;5.660;2024-02-28T07:31:34;6.7;67.9
78475;SHT31;67766;51.964;5.660;2024-02-28T07:34:03;6.7;67.9
78475;SHT31;67766;51.964;5.660;2024-02-28T07:36:33;6.7;68.1
78475;SHT31;67766;51.964;5.660;2024-02-28T07:39:03;6.7;68.3
78475;SHT31;67766;51.964;5.660;2024-02-28T07:41:32;6.8;68.2
78475;SHT31;67766;51.964;5.660;2024-02-28T07:44:02;6.8;68.6
78475;SHT31;67766;51.964;5.660;2024-02-28T07:46:32;6.8;68.3
78475;SHT31;67766;51.964;5.660;2024-02-28T07:49:01;6.8;68.1
78475;SHT31;67766;51.964;5.660;2024-02-28T07:51:32;6.7;68.2
78475;SHT31;67766;51.964;5.660;2024-02-28T07:54:02;6.7;68.5
78475;SHT31;67766;51.964;5.660;2024-02-28T07:56:32;6.7;68.8
78475;SHT31;67766;51.964;5.660;2024-02-28T07:59:04;6.7;68.8
78475;SHT31;67766;51.964;5.660;2024-02-28T08:01:34;6.6;68.7
78475;SHT31;67766;51.964;5.660;2024-02-28T08:04:08;6.6;69.4
78475;SHT31;67766;51.964;5.660;2024-02-28T08:06:39;6.6;69.6
78475;SHT31;67766;51.964;5.660;2024-02-28T08:09:09;6.6;69.7
78475;SHT31;67766;51.964;5.660;2024-02-28T08:11:39;6.7;69.8
78475;SHT31;67766;51.964;5.660;2024-02-28T08:14:09;6.7;69.4
78475;SHT31;67766;51.964;5.660;2024-02-28T08:16:39;6.7;69.3
78475;SHT31;67766;51.964;5.660;2024-02-28T08:19:09;6.7;69.6
78475;SHT31;67766;51.964;5.660;2024-02-28T08:21:39;6.7;69.5
78475;SHT31;67766;51.964;5.660;2024-02-28T08:24:08;6.7;69.6
78475;SHT31;67766;51.964;5.660;2024-02-28T08:26:38;6.6;70.1
78475;SHT31;67766;51.964;5.660;2024-02-28T08:29:09;6.6;69.8
78475;SHT31;67766;51.964;5.660;2024-02-28T08:31:43;6.6;69.8
78475;SHT31;67766;51.964;5.660;2024-02-28T08:34:13;6.6;70.2
78475;SHT31;67766;51.964;5.660;2024-02-28T08:36:45;6.6;70.4
78475;SHT31;67766;51.964;5.660;2024-02-28T08:39:14;6.6;70.6
78475;SHT31;67766;51.964;5.660;2024-02-28T08:41:45;6.6;70.3
78475;SHT31;67766;51.964;5.660;2024-02-28T08:44:15;6.6;70.4
78475;SHT31;67766;51.964;5.660;2024-02-28T08:46:52;6.6;70.5
78475;SHT31;67766;51.964;5.660;2024-02-28T08:49:23;6.6;70.7
78475;SHT31;67766;51.964;5.660;2024-02-28T08:51:54;6.6;70.9
78475;SHT31;67766;51.964;5.660;2024-02-28T08:54:24;6.6;71.3
78475;SHT31;67766;51.964;5.660;2024-02-28T08:56:54;6.5;71.2
78475;SHT31;67766;51.964;5.660;2024-02-28T08:59:24;6.5;71.5
78475;SHT31;67766;51.964;5.660;2024-02-28T09:01:53;6.5;72.1
78475;SHT31;67766;51.964;5.660;2024-02-28T09:04:23;6.5;72.2
78475;SHT31;67766;51.964;5.660;2024-02-28T09:06:52;6.6;71.9
78475;SHT31;67766;51.964;5.660;2024-02-28T09:09:24;6.6;71.8
78475;SHT31;67766;51.964;5.660;2024-02-28T09:11:58;6.6;72.1
78475;SHT31;67766;51.964;5.660;2024-02-28T09:14:30;6.6;72.2
78475;SHT31;67766;51.964;5.660;2024-02-28T09:17:00;6.6;72.6
78475;SHT31;67766;51.964;5.660;2024-02-28T09:19:32;6.6;72.8
78475;SHT31;67766;51.964;5.660;2024-02-28T09:22:02;6.7;73.2
78475;SHT31;67766;51.964;5.660;2024-02-28T09:24:31;6.7;73.6
78475;SHT31;67766;51.964;5.660;2024-02-28T09:27:01;6.7;73.8
78475;SHT31;67766;51.964;5.660;2024-02-28T09:29:30;6.7;74.0
78475;SHT31;67766;51.964;5.660;2024-02-28T09:32:00;6.8;73.8
78475;SHT31;67766;51.964;5.660;2024-02-28T09:34:29;6.8;74.0
78475;SHT31;67766;51.964;5.660;2024-02-28T09:36:59;6.9;73.5
78475;SHT31;67766;51.964;5.660;2024-02-28T09:39:29;6.9;73.3
78475;SHT31;67766;51.964;5.660;2024-02-28T09:42:00;6.9;73.3
78475;SHT31;67766;51.964;5.660;2024-02-28T09:44:31;7.0;73.2
78475;SHT31;67766;51.964;5.660;2024-02-28T09:47:01;7.0;73.3
78475;SHT31;67766;51.964;5.660;2024-02-28T09:49:36;7.0;73.3
78475;SHT31;67766;51.964;5.660;2024-02-28T09:52:06;7.1;73.6
78475;SHT31;67766;51.964;5.660;2024-02-28T09:54:36;7.1;73.2
78475;SHT31;67766;51.964;5.660;2024-02-28T09:57:06;7.2;73.2
78475;SHT31;67766;51.964;5.660;2024-02-28T09:59:37;7.2;72.7
78475;SHT31;67766;51.964;5.660;2024-02-28T10:02:10;7.3;73.1
78475;SHT31;67766;51.964;5.660;2024-02-28T10:04:41;7.3;73.1
78475;SHT31;67766;51.964;5.660;2024-02-28T10:07:13;7.4;73.0
78475;SHT31;67766;51.964;5.660;2024-02-28T10:09:42;7.4;72.7
78475;SHT31;67766;51.964;5.660;2024-02-28T10:12:12;7.5;72.9
78475;SHT31;67766;51.964;5.660;2024-02-28T10:14:43;7.6;72.5
78475;SHT31;67766;51.964;5.660;2024-02-28T10:17:13;7.6;72.7
78475;SHT31;67766;51.964;5.660;2024-02-28T10:19:42;7.6;72.6
78475;SHT31;67766;51.964;5.660;2024-02-28T10:22:12;7.7;72.8
78475;SHT31;67766;51.964;5.660;2024-02-28T10:24:41;7.7;72.8
78475;SHT31;67766;51.964;5.660;2024-02-28T10:27:15;7.8;72.5
78475;SHT31;67766;51.964;5.660;2024-02-28T10:29:46;7.8;72.7
78475;SHT31;67766;51.964;5.660;2024-02-28T10:32:16;7.8;72.9
78475;SHT31;67766;51.964;5.660;2024-02-28T10:34:46;7.8;72.6
78475;SHT31;67766;51.964;5.660;2024-02-28T10:37:17;7.9;72.8
78475;SHT31;67766;51.964;5.660;2024-02-28T10:39:51;7.9;73.2
78475;SHT31;67766;51.964;5.660;2024-02-28T10:42:23;7.9;72.8
78475;SHT31;67766;51.964;5.660;2024-02-28T10:44:57;7.9;72.9
78475;SHT31;67766;51.964;5.660;2024-02-28T10:47:29;7.9;73.4
78475;SHT31;67766;51.964;5.660;2024-02-28T10:50:01;8.0;73.3
78475;SHT31;67766;51.964;5.660;2024-02-28T10:52:33;8.0;73.7
78475;SHT31;67766;51.964;5.660;2024-02-28T10:55:05;8.1;73.8
78475;SHT31;67766;51.964;5.660;2024-02-28T10:57:39;8.1;73.6
78475;SHT31;67766;51.964;5.660;2024-02-28T11:00:13;8.2;73.6
78475;SHT31;67766;51.964;5.660;2024-02-28T11:02:45;8.2;73.5
78475;SHT31;67766;51.964;5.660;2024-02-28T11:05:15;8.3;73.7
78475;SHT31;67766;51.964;5.660;2024-02-28T11:07:50;8.4;73.6
78475;SHT31;67766;51.964;5.660;2024-02-28T11:10:23;8.4;73.1
78475;SHT31;67766;51.964;5.660;2024-02-28T11:12:56;8.5;72.7
78475;SHT31;67766;51.964;5.660;2024-02-28T11:15:25;8.6;73.0
78475;SHT31;67766;51.964;5.660;2024-02-28T11:18:08;8.6;72.9
78475;SHT31;67766;51.964;5.660;2024-02-28T11:20:40;8.7;72.7
78475;SHT31;67766;51.964;5.660;2024-02-28T11:23:11;8.7;73.0
78475;SHT31;67766;51.964;5.660;2024-02-28T11:25:42;8.8;72.7
78475;SHT31;67766;51.964;5.660;2024-02-28T11:28:11;8.8;72.8
78475;SHT31;67766;51.964;5.660;2024-02-28T11:30:44;8.9;72.3
78475;SHT31;67766;51.964;5.660;2024-02-28T11:33:14;8.9;72.6
78475;SHT31;67766;51.964;5.660;2024-02-28T11:35:55;8.9;72.4
78475;SHT31;67766;51.964;5.660;2024-02-28T11:38:26;9.0;72.7
78475;SHT31;67766;51.964;5.660;2024-02-28T11:40:56;9.0;73.2
78475;SHT31;67766;51.964;5.660;2024-02-28T11:43:27;9.1;72.9
78475;SHT31;67766;51.964;5.660;2024-02-28T11:45:57;9.1;73.2
78475;SHT31;67766;51.964;5.660;2024-02-28T11:48:29;9.2;73.0
78475;SHT31;67766;51.964;5.660;2024-02-28T11:51:00;9.2;73.1
78475;SHT31;67766;51.964;5.660;2024-02-28T11:53:30;9.3;73.1
78475;SHT31;67766;51.964;5.660;2024-02-28T11:56:01;9.3;73.0
78475;SHT31;67766;51.964;5.660;2024-02-28T11:58:31;9.4;73.1
78475;SHT31;67766;51.964;5.660;2024-02-28T12:01:00;9.4;73.1
78475;SHT31;67766;51.964;5.660;2024-02-28T12:03:30;9.5;73.2
78475;SHT31;67766;51.964;5.660;2024-02-28T12:06:00;9.6;72.5
78475;SHT31;67766;51.964;5.660;2024-02-28T12:08:31;9.6;72.2
78475;SHT31;67766;51.964;5.660;2024-02-28T12:11:08;9.6;72.7
78475;SHT31;67766;51.964;5.660;2024-02-28T12:13:52;9.7;72.3
78475;SHT31;67766;51.964;5.660;2024-02-28T12:16:24;9.7;72.3
78475;SHT31;67766;51.964;5.660;2024-02-28T12:18:54;9.7;72.4
78475;SHT31;67766;51.964;5.660;2024-02-28T12:21:44;9.8;71.9
78475;SHT31;67766;51.964;5.660;2024-02-28T12:24:14;9.8;71.7
78475;SHT31;67766;51.964;5.660;2024-02-28T12:26:44;9.8;71.6
78475;SHT31;67766;51.964;5.660;2024-02-28T12:29:14;9.9;71.6
78475;SHT31;67766;51.964;5.660;2024-02-28T12:31:46;9.9;71.9
78475;SHT31;67766;51.964;5.660;2024-02-28T12:34:15;9.9;72.1
78475;SHT31;67766;51.964;5.660;2024-02-28T12:36:49;10.0;71.8
78475;SHT31;67766;51.964;5.660;2024-02-28T12:39:18;10.0;71.8
78475;SHT31;67766;51.964;5.660;2024-02-28T12:41:49;10.1;71.8
78475;SHT31;67766;51.964;5.660;2024-02-28T12:44:19;10.1;71.1
78475;SHT31;67766;51.964;5.660;2024-02-28T12:46:48;10.1;71.2
78475;SHT31;67766;51.964;5.660;2024-02-28T12:49:18;10.2;71.6
78475;SHT31;67766;51.964;5.660;2024-02-28T12:51:49;10.2;71.5
78475;SHT31;67766;51.964;5.660;2024-02-28T12:54:19;10.3;71.3
78475;SHT31;67766;51.964;5.660;2024-02-28T12:56:48;10.3;70.9
78475;SHT31;67766;51.964;5.660;2024-02-28T12:59:18;10.4;70.9
78475;SHT31;67766;51.964;5.660;2024-02-28T13:01:50;10.4;70.7
78475;SHT31;67766;51.964;5.660;2024-02-28T13:04:22;10.4;70.3
78475;SHT31;67766;51.964;5.660;2024-02-28T13:06:54;10.5;69.9
78475;SHT31;67766;51.964;5.660;2024-02-28T13:09:23;10.5;70.4
78475;SHT31;67766;51.964;5.660;2024-02-28T13:11:53;10.5;70.2
78475;SHT31;67766;51.964;5.660;2024-02-28T13:14:23;10.5;70.2
78475;SHT31;67766;51.964;5.660;2024-02-28T13:16:52;10.5;69.9
78475;SHT31;67766;51.964;5.660;2024-02-28T13:19:22;10.5;70.1
78475;SHT31;67766;51.964;5.660;2024-02-28T13:21:52;10.5;70.4
78475;SHT31;67766;51.964;5.660;2024-02-28T13:24:21;10.6;70.8
78475;SHT31;67766;51.964;5.660;2024-02-28T13:26:51;10.6;70.8
78475;SHT31;67766;51.964;5.660;2024-02-28T13:29:20;10.7;70.9
78475;SHT31;67766;51.964;5.660;2024-02-28T13:31:50;10.7;70.1
78475;SHT31;67766;51.964;5.660;2024-02-28T13:34:20;10.8;70.6
78475;SHT31;67766;51.964;5.660;2024-02-28T13:36:50;10.8;70.8
78475;SHT31;67766;51.964;5.660;2024-02-28T13:39:20;10.8;69.4
78475;SHT31;67766;51.964;5.660;2024-02-28T13:41:50;10.8;69.2
78475;SHT31;67766;51.964;5.660;2024-02-28T13:44:20;10.9;68.5
78475;SHT31;67766;51.964;5.660;2024-02-28T13:46:52;10.9;68.8
78475;SHT31;67766;51.964;5.660;2024-02-28T13:49:21;10.9;68.7
78475;SHT31;67766;51.964;5.660;2024-02-28T13:51:51;10.9;69.4
78475;SHT31;67766;51.964;5.660;2024-02-28T13:54:21;10.9;69.2
78475;SHT31;67766;51.964;5.660;2024-02-28T13:56:50;10.9;69.0
78475;SHT31;67766;51.964;5.660;2024-02-28T13:59:22;10.9;69.2
78475;SHT31;67766;51.964;5.660;2024-02-28T14:01:52;10.9;68.8
78475;SHT31;67766;51.964;5.660;2024-02-28T14:04:21;11.0;69.1
78475;SHT31;67766;51.964;5.660;2024-02-28T14:06:51;11.0;69.0
78475;SHT31;67766;51.964;5.660;2024-02-28T14:09:20;11.0;69.2
78475;SHT31;67766;51.964;5.660;2024-02-28T14:11:50;11.1;68.9
78475;SHT31;67766;51.964;5.660;2024-02-28T14:14:20;11.1;68.7
78475;SHT31;67766;51.964;5.660;2024-02-28T14:16:49;11.2;68.6
78475;SHT31;67766;51.964;5.660;2024-02-28T14:19:21;11.2;68.6
78475;SHT31;67766;51.964;5.660;2024-02-28T14:21:53;11.3;68.2
78475;SHT31;67766;51.964;5.660;2024-02-28T14:24:25;11.3;67.6
78475;SHT31;67766;51.964;5.660;2024-02-28T14:26:54;11.3;67.6
78475;SHT31;67766;51.964;5.660;2024-02-28T14:29:24;11.3;67.3
78475;SHT31;67766;51.964;5.660;2024-02-28T14:31:55;11.3;67.3
78475;SHT31;67766;51.964;5.660;2024-02-28T14:34:25;11.4;67.2
78475;SHT31;67766;51.964;5.660;2024-02-28T14:36:56;11.4;67.6
78475;SHT31;67766;51.964;5.660;2024-02-28T14:39:26;11.3;67.1
78475;SHT31;67766;51.964;5.660;2024-02-28T14:41:58;11.3;67.2
78475;SHT31;67766;51.964;5.660;2024-02-28T14:44:27;11.3;67.3
78475;SHT31;67766;51.964;5.660;2024-02-28T14:46:57;11.2;68.0
78475;SHT31;67766;51.964;5.660;2024-02-28T14:49:26;11.2;67.9
78475;SHT31;67766;51.964;5.660;2024-02-28T14:51:56;11.2;68.3
78475;SHT31;67766;51.964;5.660;2024-02-28T14:54:29;11.2;68.2
78475;SHT31;67766;51.964;5.660;2024-02-28T14:57:05;11.2;68.5
78475;SHT31;67766;51.964;5.660;2024-02-28T14:59:34;11.2;68.6
78475;SHT31;67766;51.964;5.660;2024-02-28T15:02:06;11.2;68.4
78475;SHT31;67766;51.964;5.660;2024-02-28T15:04:37;11.1;68.6
78475;SHT31;67766;51.964;5.660;2024-02-28T15:07:07;11.1;69.0
78475;SHT31;67766;51.964;5.660;2024-02-28T15:09:36;11.1;69.2
78475;SHT31;67766;51.964;5.660;2024-02-28T15:12:06;11.1;68.9
78475;SHT31;67766;51.964;5.660;2024-02-28T15:14:37;11.1;68.6
78475;SHT31;67766;51.964;5.660;2024-02-28T15:17:09;11.1;68.7
78475;SHT31;67766;51.964;5.660;2024-02-28T15:19:39;11.1;68.6
78475;SHT31;67766;51.964;5.660;2024-02-28T15:22:09;11.1;68.7
78475;SHT31;67766;51.964;5.660;2024-02-28T15:24:40;11.1;68.7
78475;SHT31;67766;51.964;5.660;2024-02-28T15:27:10;11.1;68.5
78475;SHT31;67766;51.964;5.660;2024-02-28T15:29:39;11.1;68.5
78475;SHT31;67766;51.964;5.660;2024-02-28T15:32:10;11.1;68.4
78475;SHT31;67766;51.964;5.660;2024-02-28T15:34:39;11.0;68.7
78475;SHT31;67766;51.964;5.660;2024-02-28T15:37:09;11.0;69.0
78475;SHT31;67766;51.964;5.660;2024-02-28T15:39:39;11.0;69.0
78475;SHT31;67766;51.964;5.660;2024-02-28T15:42:11;11.0;69.2
78475;SHT31;67766;51.964;5.660;2024-02-28T15:44:41;11.0;69.2
78475;SHT31;67766;51.964;5.660;2024-02-28T15:47:10;11.0;68.6
78475;SHT31;67766;51.964;5.660;2024-02-28T15:49:40;11.0;68.1
78475;SHT31;67766;51.964;5.660;2024-02-28T15:52:10;11.0;68.5
78475;SHT31;67766;51.964;5.660;2024-02-28T15:54:40;11.0;68.7
78475;SHT31;67766;51.964;5.660;2024-02-28T15:57:09;10.9;69.0
78475;SHT31;67766;51.964;5.660;2024-02-28T15:59:40;10.9;69.2
78475;SHT31;67766;51.964;5.660;2024-02-28T16:02:10;10.9;68.9
78475;SHT31;67766;51.964;5.660;2024-02-28T16:04:40;10.9;68.8
78475;SHT31;67766;51.964;5.660;2024-02-28T16:07:10;10.9;68.8
78475;SHT31;67766;51.964;5.660;2024-02-28T16:09:40;10.9;68.7
78475;SHT31;67766;51.964;5.660;2024-02-28T16:12:10;10.9;68.7
78475;SHT31;67766;51.964;5.660;2024-02-28T16:14:40;10.9;69.0
78475;SHT31;67766;51.964;5.660;2024-02-28T16:17:10;10.9;69.2
78475;SHT31;67766;51.964;5.660;2024-02-28T16:19:43;10.9;69.4
78475;SHT31;67766;51.964;5.660;2024-02-28T16:22:14;10.9;69.3
78475;SHT31;67766;51.964;5.660;2024-02-28T16:24:45;10.9;69.3
78475;SHT31;67766;51.964;5.660;2024-02-28T16:27:14;10.9;69.1
78475;SHT31;67766;51.964;5.660;2024-02-28T16:29:44;10.9;69.1
78475;SHT31;67766;51.964;5.660;2024-02-28T16:32:14;10.9;69.4
78475;SHT31;67766;51.964;5.660;2024-02-28T16:34:43;11.0;69.6